createdAt,value
2018-06-23T00:00:04.989Z,1020.04
2018-06-23T00:00:31.127Z,1020.04
2018-06-23T00:00:57.324Z,1020.02
2018-06-23T00:01:23.461Z,1020.01
2018-06-23T00:01:49.603Z,1020.03
2018-06-23T00:02:15.763Z,1020.03
2018-06-23T00:02:41.936Z,1020.01
2018-06-23T00:03:08.077Z,1020.04
2018-06-23T00:03:34.330Z,1020.08
2018-06-23T00:04:00.450Z,1020.03
2018-06-23T00:04:26.590Z,1020.08
2018-06-23T00:04:52.758Z,1020.06
2018-06-23T00:05:18.891Z,1020.04
2018-06-23T00:05:45.030Z,1020.04
2018-06-23T00:06:11.163Z,1020.04
2018-06-23T00:06:37.347Z,1020.02
2018-06-23T00:07:03.481Z,1020
2018-06-23T00:07:29.625Z,1020.04
2018-06-23T00:07:55.780Z,1020
2018-06-23T00:08:21.965Z,1019.97
2018-06-23T00:08:48.129Z,1019.98
2018-06-23T00:09:14.275Z,1020.01
2018-06-23T00:09:40.438Z,1020.02
2018-06-23T00:10:06.598Z,1020
2018-06-23T00:10:32.730Z,1019.99
2018-06-23T00:10:58.874Z,1020
2018-06-23T00:11:25.035Z,1020
2018-06-23T00:11:51.237Z,1019.97
2018-06-23T00:12:17.404Z,1019.96
2018-06-23T00:12:43.605Z,1020.01
2018-06-23T00:13:09.768Z,1020.02
2018-06-23T00:13:35.906Z,1019.97
2018-06-23T00:14:02.055Z,1020
2018-06-23T00:14:28.252Z,1019.98
2018-06-23T00:14:54.374Z,1019.96
2018-06-23T00:15:20.529Z,1019.95
2018-06-23T00:15:46.700Z,1019.97
2018-06-23T00:16:12.836Z,1019.96
2018-06-23T00:16:38.980Z,1019.95
2018-06-23T00:17:05.131Z,1019.97
2018-06-23T00:17:31.328Z,1019.93
2018-06-23T00:17:57.486Z,1019.93
2018-06-23T00:18:23.631Z,1019.94
2018-06-23T00:18:49.923Z,1019.99
2018-06-23T00:19:16.059Z,1019.95
2018-06-23T00:19:42.361Z,1019.96
2018-06-23T00:20:08.498Z,1020
2018-06-23T00:20:34.636Z,1019.98
2018-06-23T00:21:00.780Z,1020.01
2018-06-23T00:21:26.918Z,1019.98
2018-06-23T00:21:53.086Z,1019.99
2018-06-23T00:22:19.222Z,1019.96
2018-06-23T00:22:45.364Z,1019.96
2018-06-23T00:23:11.609Z,1019.93
2018-06-23T00:23:38.801Z,1019.96
2018-06-23T00:24:04.920Z,1019.96
2018-06-23T00:24:31.080Z,1019.99
2018-06-23T00:24:57.214Z,1019.97
2018-06-23T00:25:23.377Z,1019.96
2018-06-23T00:25:49.739Z,1019.96
2018-06-23T00:26:15.951Z,1019.98
2018-06-23T00:26:42.137Z,1019.97
2018-06-23T00:27:08.315Z,1020
2018-06-23T00:27:34.568Z,1019.99
2018-06-23T00:28:00.772Z,1019.96
2018-06-23T00:28:26.988Z,1020.03
2018-06-23T00:28:53.187Z,1020.04
2018-06-23T00:29:19.447Z,1020.01
2018-06-23T00:29:45.641Z,1020.02
2018-06-23T00:30:11.877Z,1019.97
2018-06-23T00:30:38.089Z,1020.01
2018-06-23T00:31:04.337Z,1020
2018-06-23T00:31:30.686Z,1020.02
2018-06-23T00:31:56.910Z,1020.03
2018-06-23T00:32:23.007Z,1019.96
2018-06-23T00:32:49.177Z,1019.99
2018-06-23T00:33:15.573Z,1019.97
2018-06-23T00:33:41.858Z,1019.97
2018-06-23T00:34:08.101Z,1019.92
2018-06-23T00:34:34.237Z,1019.93
2018-06-23T00:35:00.476Z,1019.93
2018-06-23T00:35:26.615Z,1019.99
2018-06-23T00:35:52.756Z,1019.99
2018-06-23T00:36:18.913Z,1019.97
2018-06-23T00:36:45.079Z,1020
2018-06-23T00:37:11.215Z,1019.97
2018-06-23T00:37:37.365Z,1019.96
2018-06-23T00:38:03.513Z,1019.96
2018-06-23T00:38:29.750Z,1020
2018-06-23T00:38:56.178Z,1019.97
2018-06-23T00:39:22.371Z,1020.04
2018-06-23T00:39:48.534Z,1019.92
2018-06-23T00:40:14.858Z,1019.97
2018-06-23T00:40:41.158Z,1019.99
2018-06-23T00:41:07.302Z,1019.98
2018-06-23T00:41:33.442Z,1019.97
2018-06-23T00:41:59.577Z,1019.98
2018-06-23T00:42:25.712Z,1019.96
2018-06-23T00:42:51.853Z,1019.96
2018-06-23T00:43:17.993Z,1019.96
2018-06-23T00:43:44.156Z,1019.97
2018-06-23T00:44:10.326Z,1019.98
2018-06-23T00:44:36.869Z,1019.94
2018-06-23T00:45:03.588Z,1019.96
2018-06-23T00:45:29.654Z,1019.92
2018-06-23T00:45:55.791Z,1019.98
2018-06-23T00:46:21.931Z,1019.96
2018-06-23T00:46:48.070Z,1019.9
2018-06-23T00:47:14.216Z,1019.97
2018-06-23T00:47:40.347Z,1019.95
2018-06-23T00:48:06.485Z,1019.94
2018-06-23T00:48:32.807Z,1019.98
2018-06-23T00:48:58.985Z,1019.99
2018-06-23T00:49:25.130Z,1020.01
2018-06-23T00:49:51.338Z,1019.98
2018-06-23T00:50:17.477Z,1019.97
2018-06-23T00:50:43.614Z,1019.97
2018-06-23T00:51:09.754Z,1019.95
2018-06-23T00:51:35.911Z,1019.91
2018-06-23T00:52:02.088Z,1019.91
2018-06-23T00:52:28.238Z,1019.96
2018-06-23T00:52:54.569Z,1019.96
2018-06-23T00:53:20.738Z,1019.96
2018-06-23T00:53:46.875Z,1019.92
2018-06-23T00:54:13.049Z,1019.86
2018-06-23T00:54:39.219Z,1019.93
2018-06-23T00:55:05.348Z,1019.9
2018-06-23T00:55:31.484Z,1019.93
2018-06-23T00:55:57.735Z,1019.94
2018-06-23T00:56:23.897Z,1019.89
2018-06-23T00:56:50.060Z,1019.89
2018-06-23T00:57:16.199Z,1019.92
2018-06-23T00:57:42.341Z,1019.92
2018-06-23T00:58:08.527Z,1019.92
2018-06-23T00:58:34.674Z,1019.91
2018-06-23T00:59:00.808Z,1019.91
2018-06-23T00:59:26.950Z,1019.94
2018-06-23T00:59:53.090Z,1019.89
2018-06-23T01:00:19.228Z,1019.88
2018-06-23T01:00:45.362Z,1019.93
2018-06-23T01:01:11.563Z,1019.89
2018-06-23T01:01:37.870Z,1019.9
2018-06-23T01:02:04.139Z,1019.86
2018-06-23T01:02:30.280Z,1019.88
2018-06-23T01:02:56.417Z,1019.89
2018-06-23T01:03:22.564Z,1019.89
2018-06-23T01:03:48.725Z,1019.87
2018-06-23T01:04:14.859Z,1019.91
2018-06-23T01:04:41.023Z,1019.85
2018-06-23T01:05:07.166Z,1019.86
2018-06-23T01:05:33.305Z,1019.9
2018-06-23T01:05:59.446Z,1019.87
2018-06-23T01:06:25.575Z,1019.87
2018-06-23T01:06:51.714Z,1019.87
2018-06-23T01:07:17.852Z,1019.84
2018-06-23T01:07:43.996Z,1019.83
2018-06-23T01:08:10.138Z,1019.86
2018-06-23T01:08:36.275Z,1019.85
2018-06-23T01:09:02.414Z,1019.89
2018-06-23T01:09:28.555Z,1019.86
2018-06-23T01:09:54.736Z,1019.87
2018-06-23T01:10:20.879Z,1019.89
2018-06-23T01:10:47.015Z,1019.88
2018-06-23T01:11:13.154Z,1019.88
2018-06-23T01:11:39.291Z,1019.88
2018-06-23T01:12:05.452Z,1019.85
2018-06-23T01:12:31.591Z,1019.86
2018-06-23T01:12:57.734Z,1019.9
2018-06-23T01:13:23.859Z,1019.87
2018-06-23T01:13:49.997Z,1019.83
2018-06-23T01:14:16.137Z,1019.84
2018-06-23T01:14:42.277Z,1019.82
2018-06-23T01:15:08.439Z,1019.83
2018-06-23T01:15:34.581Z,1019.9
2018-06-23T01:16:00.759Z,1019.91
2018-06-23T01:16:26.892Z,1019.88
2018-06-23T01:16:53.027Z,1019.9
2018-06-23T01:17:19.209Z,1019.91
2018-06-23T01:17:45.353Z,1019.86
2018-06-23T01:18:11.487Z,1019.87
2018-06-23T01:18:37.632Z,1019.87
2018-06-23T01:19:03.766Z,1019.87
2018-06-23T01:19:29.909Z,1019.87
2018-06-23T01:19:56.044Z,1019.86
2018-06-23T01:20:22.186Z,1019.89
2018-06-23T01:20:48.327Z,1019.87
2018-06-23T01:21:14.466Z,1019.84
2018-06-23T01:21:40.609Z,1019.87
2018-06-23T01:22:06.745Z,1019.89
2018-06-23T01:22:32.875Z,1019.85
2018-06-23T01:22:59.039Z,1019.84
2018-06-23T01:23:25.154Z,1019.84
2018-06-23T01:23:51.313Z,1019.83
2018-06-23T01:24:17.451Z,1019.84
2018-06-23T01:24:43.590Z,1019.85
2018-06-23T01:25:09.750Z,1019.84
2018-06-23T01:25:35.893Z,1019.86
2018-06-23T01:26:02.023Z,1019.83
2018-06-23T01:26:28.168Z,1019.86
2018-06-23T01:26:54.308Z,1019.82
2018-06-23T01:27:20.445Z,1019.86
2018-06-23T01:27:46.610Z,1019.83
2018-06-23T01:28:12.745Z,1019.86
2018-06-23T01:28:38.901Z,1019.88
2018-06-23T01:29:05.042Z,1019.88
2018-06-23T01:29:31.191Z,1019.84
2018-06-23T01:29:57.327Z,1019.87
2018-06-23T01:30:23.454Z,1019.86
2018-06-23T01:30:49.594Z,1019.81
2018-06-23T01:31:15.735Z,1019.84
2018-06-23T01:31:41.872Z,1019.82
2018-06-23T01:32:08.008Z,1019.88
2018-06-23T01:32:34.150Z,1019.87
2018-06-23T01:33:00.285Z,1019.83
2018-06-23T01:33:26.423Z,1019.84
2018-06-23T01:33:52.563Z,1019.79
2018-06-23T01:34:18.701Z,1019.84
2018-06-23T01:34:44.844Z,1019.83
2018-06-23T01:35:10.986Z,1019.81
2018-06-23T01:35:37.123Z,1019.81
2018-06-23T01:36:03.261Z,1019.84
2018-06-23T01:36:29.393Z,1019.79
2018-06-23T01:36:55.553Z,1019.81
2018-06-23T01:37:21.695Z,1019.81
2018-06-23T01:37:47.824Z,1019.79
2018-06-23T01:38:13.969Z,1019.81
2018-06-23T01:38:40.128Z,1019.79
2018-06-23T01:39:06.261Z,1019.78
2018-06-23T01:39:32.405Z,1019.76
2018-06-23T01:39:58.548Z,1019.76
2018-06-23T01:40:24.682Z,1019.74
2018-06-23T01:40:50.820Z,1019.75
2018-06-23T01:41:16.964Z,1019.76
2018-06-23T01:41:43.130Z,1019.75
2018-06-23T01:42:09.272Z,1019.71
2018-06-23T01:42:35.409Z,1019.77
2018-06-23T01:43:01.545Z,1019.75
2018-06-23T01:43:27.733Z,1019.76
2018-06-23T01:43:53.869Z,1019.75
2018-06-23T01:44:20.007Z,1019.77
2018-06-23T01:44:46.161Z,1019.75
2018-06-23T01:45:12.332Z,1019.76
2018-06-23T01:45:38.489Z,1019.74
2018-06-23T01:46:04.624Z,1019.74
2018-06-23T01:46:30.763Z,1019.75
2018-06-23T01:46:56.938Z,1019.74
2018-06-23T01:47:23.090Z,1019.76
2018-06-23T01:47:49.232Z,1019.74
2018-06-23T01:48:15.365Z,1019.75
2018-06-23T01:48:41.506Z,1019.75
2018-06-23T01:49:07.643Z,1019.74
2018-06-23T01:49:33.778Z,1019.76
2018-06-23T01:49:59.945Z,1019.72
2018-06-23T01:50:26.083Z,1019.76
2018-06-23T01:50:52.223Z,1019.71
2018-06-23T01:51:18.362Z,1019.67
2018-06-23T01:51:44.495Z,1019.7
2018-06-23T01:52:10.632Z,1019.66
2018-06-23T01:52:36.775Z,1019.64
2018-06-23T01:53:02.919Z,1019.66
2018-06-23T01:53:29.107Z,1019.67
2018-06-23T01:53:55.244Z,1019.67
2018-06-23T01:54:21.380Z,1019.62
2018-06-23T01:54:47.519Z,1019.63
2018-06-23T01:55:13.659Z,1019.62
2018-06-23T01:55:39.797Z,1019.63
2018-06-23T01:56:05.959Z,1019.6
2018-06-23T01:56:32.103Z,1019.63
2018-06-23T01:56:58.237Z,1019.56
2018-06-23T01:57:24.389Z,1019.6
2018-06-23T01:57:50.558Z,1019.59
2018-06-23T01:58:16.693Z,1019.61
2018-06-23T01:58:42.858Z,1019.58
2018-06-23T01:59:08.991Z,1019.58
2018-06-23T01:59:35.125Z,1019.58
2018-06-23T02:00:01.266Z,1019.52
2018-06-23T02:00:27.426Z,1019.55
2018-06-23T02:00:53.561Z,1019.57
2018-06-23T02:01:19.700Z,1019.64
2018-06-23T02:01:45.838Z,1019.6
2018-06-23T02:02:12.023Z,1019.59
2018-06-23T02:02:38.180Z,1019.58
2018-06-23T02:03:04.317Z,1019.62
2018-06-23T02:03:30.458Z,1019.61
2018-06-23T02:03:56.596Z,1019.59
2018-06-23T02:04:22.732Z,1019.59
2018-06-23T02:04:48.878Z,1019.62
2018-06-23T02:05:15.019Z,1019.58
2018-06-23T02:05:41.157Z,1019.56
2018-06-23T02:06:07.317Z,1019.58
2018-06-23T02:06:33.456Z,1019.59
2018-06-23T02:06:59.589Z,1019.59
2018-06-23T02:07:25.729Z,1019.59
2018-06-23T02:07:51.865Z,1019.54
2018-06-23T02:08:18.028Z,1019.56
2018-06-23T02:08:44.164Z,1019.56
2018-06-23T02:09:10.311Z,1019.54
2018-06-23T02:09:36.446Z,1019.55
2018-06-23T02:10:02.593Z,1019.57
2018-06-23T02:10:28.751Z,1019.58
2018-06-23T02:10:54.893Z,1019.55
2018-06-23T02:11:21.029Z,1019.57
2018-06-23T02:11:47.172Z,1019.57
2018-06-23T02:12:13.335Z,1019.53
2018-06-23T02:12:39.474Z,1019.54
2018-06-23T02:13:05.610Z,1019.53
2018-06-23T02:13:31.749Z,1019.54
2018-06-23T02:13:57.891Z,1019.53
2018-06-23T02:14:24.024Z,1019.52
2018-06-23T02:14:50.162Z,1019.52
2018-06-23T02:15:16.296Z,1019.51
2018-06-23T02:15:42.431Z,1019.54
2018-06-23T02:16:08.574Z,1019.48
2018-06-23T02:16:34.710Z,1019.48
2018-06-23T02:17:00.850Z,1019.54
2018-06-23T02:17:26.994Z,1019.52
2018-06-23T02:17:53.128Z,1019.51
2018-06-23T02:18:19.261Z,1019.52
2018-06-23T02:18:45.403Z,1019.57
2018-06-23T02:19:11.577Z,1019.56
2018-06-23T02:19:37.727Z,1019.55
2018-06-23T02:20:03.875Z,1019.54
2018-06-23T02:20:30.015Z,1019.57
2018-06-23T02:20:56.162Z,1019.53
2018-06-23T02:21:22.305Z,1019.56
2018-06-23T02:21:48.476Z,1019.59
2018-06-23T02:22:14.615Z,1019.58
2018-06-23T02:22:40.783Z,1019.58
2018-06-23T02:23:06.918Z,1019.59
2018-06-23T02:23:33.061Z,1019.56
2018-06-23T02:23:59.208Z,1019.57
2018-06-23T02:24:25.338Z,1019.56
2018-06-23T02:24:51.483Z,1019.55
2018-06-23T02:25:17.628Z,1019.51
2018-06-23T02:25:43.762Z,1019.57
2018-06-23T02:26:09.896Z,1019.5
2018-06-23T02:26:36.061Z,1019.59
2018-06-23T02:27:02.198Z,1019.52
2018-06-23T02:27:28.339Z,1019.51
2018-06-23T02:27:54.476Z,1019.58
2018-06-23T02:28:20.616Z,1019.56
2018-06-23T02:28:46.745Z,1019.58
2018-06-23T02:29:12.884Z,1019.58
2018-06-23T02:29:39.018Z,1019.56
2018-06-23T02:30:05.193Z,1019.55
2018-06-23T02:30:31.336Z,1019.58
2018-06-23T02:30:57.522Z,1019.56
2018-06-23T02:31:23.658Z,1019.51
2018-06-23T02:31:49.810Z,1019.55
2018-06-23T02:32:15.969Z,1019.55
2018-06-23T02:32:42.134Z,1019.51
2018-06-23T02:33:08.270Z,1019.53
2018-06-23T02:33:34.402Z,1019.48
2018-06-23T02:34:00.569Z,1019.51
2018-06-23T02:34:26.727Z,1019.51
2018-06-23T02:34:52.895Z,1019.51
2018-06-23T02:35:19.053Z,1019.5
2018-06-23T02:35:45.232Z,1019.5
2018-06-23T02:36:11.388Z,1019.44
2018-06-23T02:36:37.550Z,1019.5
2018-06-23T02:37:03.710Z,1019.47
2018-06-23T02:37:29.856Z,1019.45
2018-06-23T02:37:56.021Z,1019.47
2018-06-23T02:38:22.161Z,1019.51
2018-06-23T02:38:48.320Z,1019.45
2018-06-23T02:39:14.450Z,1019.49
2018-06-23T02:39:40.598Z,1019.48
2018-06-23T02:40:06.774Z,1019.46
2018-06-23T02:40:32.958Z,1019.47
2018-06-23T02:40:59.099Z,1019.47
2018-06-23T02:41:25.261Z,1019.48
2018-06-23T02:41:51.413Z,1019.45
2018-06-23T02:42:17.613Z,1019.48
2018-06-23T02:42:43.801Z,1019.51
2018-06-23T02:43:09.953Z,1019.48
2018-06-23T02:43:36.101Z,1019.53
2018-06-23T02:44:02.263Z,1019.51
2018-06-23T02:44:28.407Z,1019.52
2018-06-23T02:44:54.571Z,1019.5
2018-06-23T02:45:20.737Z,1019.51
2018-06-23T02:45:46.899Z,1019.53
2018-06-23T02:46:13.083Z,1019.48
2018-06-23T02:46:39.250Z,1019.48
2018-06-23T02:47:05.413Z,1019.45
2018-06-23T02:47:31.581Z,1019.51
2018-06-23T02:47:57.740Z,1019.5
2018-06-23T02:48:23.907Z,1019.47
2018-06-23T02:48:50.042Z,1019.46
2018-06-23T02:49:16.205Z,1019.48
2018-06-23T02:49:42.337Z,1019.48
2018-06-23T02:50:08.477Z,1019.51
2018-06-23T02:50:34.663Z,1019.51
2018-06-23T02:51:00.818Z,1019.48
2018-06-23T02:51:26.977Z,1019.5
2018-06-23T02:51:53.118Z,1019.5
2018-06-23T02:52:19.320Z,1019.52
2018-06-23T02:52:45.454Z,1019.51
2018-06-23T02:53:11.617Z,1019.52
2018-06-23T02:53:37.764Z,1019.53
2018-06-23T02:54:03.945Z,1019.52
2018-06-23T02:54:30.137Z,1019.52
2018-06-23T02:54:56.272Z,1019.48
2018-06-23T02:55:22.411Z,1019.55
2018-06-23T02:55:48.576Z,1019.53
2018-06-23T02:56:14.706Z,1019.51
2018-06-23T02:56:40.845Z,1019.53
2018-06-23T02:57:07.007Z,1019.49
2018-06-23T02:57:33.169Z,1019.52
2018-06-23T02:57:59.328Z,1019.53
2018-06-23T02:58:25.516Z,1019.54
2018-06-23T02:58:51.653Z,1019.49
2018-06-23T02:59:17.790Z,1019.57
2018-06-23T02:59:43.952Z,1019.52
2018-06-23T03:00:10.113Z,1019.56
2018-06-23T03:00:36.272Z,1019.57
2018-06-23T03:01:02.481Z,1019.5
2018-06-23T03:01:28.827Z,1019.54
2018-06-23T03:01:55.131Z,1019.52
2018-06-23T03:02:21.473Z,1019.51
2018-06-23T03:02:47.789Z,1019.49
2018-06-23T03:03:13.974Z,1019.48
2018-06-23T03:03:40.184Z,1019.5
2018-06-23T03:04:06.371Z,1019.53
2018-06-23T03:04:32.706Z,1019.51
2018-06-23T03:04:58.869Z,1019.5
2018-06-23T03:05:25.173Z,1019.54
2018-06-23T03:05:51.399Z,1019.53
2018-06-23T03:06:17.628Z,1019.54
2018-06-23T03:06:43.817Z,1019.56
2018-06-23T03:07:09.985Z,1019.53
2018-06-23T03:07:36.287Z,1019.55
2018-06-23T03:08:02.543Z,1019.54
2018-06-23T03:08:28.767Z,1019.55
2018-06-23T03:08:54.973Z,1019.52
2018-06-23T03:09:21.240Z,1019.55
2018-06-23T03:09:47.531Z,1019.54
2018-06-23T03:10:13.702Z,1019.5
2018-06-23T03:10:39.843Z,1019.53
2018-06-23T03:11:05.982Z,1019.51
2018-06-23T03:11:32.178Z,1019.53
2018-06-23T03:11:58.320Z,1019.54
2018-06-23T03:12:24.495Z,1019.52
2018-06-23T03:12:50.636Z,1019.52
2018-06-23T03:13:16.813Z,1019.54
2018-06-23T03:13:42.976Z,1019.56
2018-06-23T03:14:09.107Z,1019.55
2018-06-23T03:14:35.268Z,1019.52
2018-06-23T03:15:01.403Z,1019.54
2018-06-23T03:15:27.573Z,1019.55
2018-06-23T03:15:53.775Z,1019.57
2018-06-23T03:16:19.934Z,1019.57
2018-06-23T03:16:46.072Z,1019.53
2018-06-23T03:17:12.214Z,1019.52
2018-06-23T03:17:38.367Z,1019.5
2018-06-23T03:18:04.501Z,1019.49
2018-06-23T03:18:30.662Z,1019.53
2018-06-23T03:18:56.819Z,1019.51
2018-06-23T03:19:23.016Z,1019.51
2018-06-23T03:19:49.091Z,1019.47
2018-06-23T03:20:15.235Z,1019.51
2018-06-23T03:20:41.384Z,1019.53
2018-06-23T03:21:07.533Z,1019.53
2018-06-23T03:21:33.691Z,1019.47
2018-06-23T03:21:59.831Z,1019.52
2018-06-23T03:22:25.986Z,1019.46
2018-06-23T03:22:52.129Z,1019.46
2018-06-23T03:23:18.267Z,1019.47
2018-06-23T03:23:44.412Z,1019.46
2018-06-23T03:24:10.548Z,1019.45
2018-06-23T03:24:36.684Z,1019.46
2018-06-23T03:25:02.851Z,1019.45
2018-06-23T03:25:29.000Z,1019.49
2018-06-23T03:25:55.125Z,1019.53
2018-06-23T03:26:21.268Z,1019.51
2018-06-23T03:26:47.429Z,1019.52
2018-06-23T03:27:13.563Z,1019.48
2018-06-23T03:27:39.725Z,1019.49
2018-06-23T03:28:05.896Z,1019.51
2018-06-23T03:28:32.035Z,1019.52
2018-06-23T03:28:58.165Z,1019.5
2018-06-23T03:29:24.313Z,1019.51
2018-06-23T03:29:50.452Z,1019.5
2018-06-23T03:30:16.590Z,1019.46
2018-06-23T03:30:42.751Z,1019.43
2018-06-23T03:31:08.888Z,1019.5
2018-06-23T03:31:35.073Z,1019.44
2018-06-23T03:32:01.209Z,1019.49
2018-06-23T03:32:27.349Z,1019.42
2018-06-23T03:32:53.485Z,1019.43
2018-06-23T03:33:19.627Z,1019.42
2018-06-23T03:33:45.765Z,1019.48
2018-06-23T03:34:11.927Z,1019.48
2018-06-23T03:34:38.065Z,1019.52
2018-06-23T03:35:04.226Z,1019.46
2018-06-23T03:35:30.371Z,1019.48
2018-06-23T03:35:56.534Z,1019.5
2018-06-23T03:36:22.665Z,1019.46
2018-06-23T03:36:48.809Z,1019.54
2018-06-23T03:37:14.945Z,1019.5
2018-06-23T03:37:41.118Z,1019.57
2018-06-23T03:38:07.252Z,1019.53
2018-06-23T03:38:33.386Z,1019.55
2018-06-23T03:38:59.529Z,1019.55
2018-06-23T03:39:25.685Z,1019.56
2018-06-23T03:39:51.819Z,1019.53
2018-06-23T03:40:17.955Z,1019.54
2018-06-23T03:40:44.087Z,1019.55
2018-06-23T03:41:10.223Z,1019.55
2018-06-23T03:41:36.385Z,1019.5
2018-06-23T03:42:02.543Z,1019.58
2018-06-23T03:42:28.734Z,1019.55
2018-06-23T03:42:54.874Z,1019.51
2018-06-23T03:43:21.013Z,1019.56
2018-06-23T03:43:47.271Z,1019.54
2018-06-23T03:44:13.390Z,1019.55
2018-06-23T03:44:39.535Z,1019.53
2018-06-23T03:45:05.670Z,1019.48
2018-06-23T03:45:31.828Z,1019.49
2018-06-23T03:45:57.969Z,1019.48
2018-06-23T03:46:24.111Z,1019.5
2018-06-23T03:46:50.247Z,1019.51
2018-06-23T03:47:16.428Z,1019.49
2018-06-23T03:47:42.561Z,1019.56
2018-06-23T03:48:08.698Z,1019.53
2018-06-23T03:48:34.841Z,1019.53
2018-06-23T03:49:00.993Z,1019.57
2018-06-23T03:49:27.142Z,1019.55
2018-06-23T03:49:53.280Z,1019.52
2018-06-23T03:50:19.420Z,1019.51
2018-06-23T03:50:45.561Z,1019.54
2018-06-23T03:51:11.723Z,1019.51
2018-06-23T03:51:37.862Z,1019.55
2018-06-23T03:52:04.004Z,1019.56
2018-06-23T03:52:30.160Z,1019.55
2018-06-23T03:52:56.300Z,1019.55
2018-06-23T03:53:22.435Z,1019.57
2018-06-23T03:53:48.590Z,1019.54
2018-06-23T03:54:14.730Z,1019.6
2018-06-23T03:54:40.896Z,1019.58
2018-06-23T03:55:07.033Z,1019.54
2018-06-23T03:55:33.219Z,1019.53
2018-06-23T03:55:59.364Z,1019.6
2018-06-23T03:56:25.504Z,1019.56
2018-06-23T03:56:51.639Z,1019.59
2018-06-23T03:57:17.783Z,1019.57
2018-06-23T03:57:43.926Z,1019.56
2018-06-23T03:58:10.063Z,1019.58
2018-06-23T03:58:36.196Z,1019.53
2018-06-23T03:59:02.331Z,1019.6
2018-06-23T03:59:28.468Z,1019.54
2018-06-23T03:59:54.605Z,1019.61
2018-06-23T04:00:20.785Z,1019.62
2018-06-23T04:00:46.913Z,1019.57
2018-06-23T04:01:13.060Z,1019.61
2018-06-23T04:01:39.245Z,1019.59
2018-06-23T04:02:05.385Z,1019.6
2018-06-23T04:02:31.525Z,1019.58
2018-06-23T04:02:57.667Z,1019.63
2018-06-23T04:03:23.831Z,1019.58
2018-06-23T04:03:49.997Z,1019.61
2018-06-23T04:04:16.132Z,1019.5
2018-06-23T04:04:42.273Z,1019.6
2018-06-23T04:05:08.413Z,1019.58
2018-06-23T04:05:34.553Z,1019.55
2018-06-23T04:06:00.696Z,1019.56
2018-06-23T04:06:26.835Z,1019.55
2018-06-23T04:06:53.024Z,1019.56
2018-06-23T04:07:19.183Z,1019.6
2018-06-23T04:07:45.322Z,1019.46
2018-06-23T04:08:11.470Z,1019.56
2018-06-23T04:08:37.607Z,1019.57
2018-06-23T04:09:03.746Z,1019.5
2018-06-23T04:09:29.877Z,1019.53
2018-06-23T04:09:56.027Z,1019.6
2018-06-23T04:10:22.189Z,1019.59
2018-06-23T04:10:48.346Z,1019.57
2018-06-23T04:11:14.489Z,1019.59
2018-06-23T04:11:40.650Z,1019.53
2018-06-23T04:12:06.790Z,1019.54
2018-06-23T04:12:32.963Z,1019.49
2018-06-23T04:12:59.123Z,1019.54
2018-06-23T04:13:25.279Z,1019.5
2018-06-23T04:13:51.432Z,1019.45
2018-06-23T04:14:17.570Z,1019.47
2018-06-23T04:14:43.711Z,1019.5
2018-06-23T04:15:09.850Z,1019.51
2018-06-23T04:15:35.988Z,1019.54
2018-06-23T04:16:02.130Z,1019.55
2018-06-23T04:16:28.266Z,1019.53
2018-06-23T04:16:54.526Z,1019.51
2018-06-23T04:17:20.543Z,1019.53
2018-06-23T04:17:46.684Z,1019.46
2018-06-23T04:18:12.822Z,1019.48
2018-06-23T04:18:38.957Z,1019.5
2018-06-23T04:19:05.097Z,1019.46
2018-06-23T04:19:31.267Z,1019.45
2018-06-23T04:19:57.403Z,1019.46
2018-06-23T04:20:23.568Z,1019.46
2018-06-23T04:20:49.710Z,1019.48
2018-06-23T04:21:15.858Z,1019.44
2018-06-23T04:21:41.982Z,1019.48
2018-06-23T04:22:08.121Z,1019.47
2018-06-23T04:22:34.256Z,1019.49
2018-06-23T04:23:00.397Z,1019.45
2018-06-23T04:23:26.556Z,1019.44
2018-06-23T04:23:52.695Z,1019.45
2018-06-23T04:24:18.837Z,1019.36
2018-06-23T04:24:44.976Z,1019.38
2018-06-23T04:25:11.116Z,1019.45
2018-06-23T04:25:37.247Z,1019.45
2018-06-23T04:26:03.412Z,1019.47
2018-06-23T04:26:29.550Z,1019.45
2018-06-23T04:26:55.688Z,1019.46
2018-06-23T04:27:21.819Z,1019.45
2018-06-23T04:27:47.951Z,1019.47
2018-06-23T04:28:14.093Z,1019.49
2018-06-23T04:28:40.232Z,1019.49
2018-06-23T04:29:06.420Z,1019.52
2018-06-23T04:29:32.515Z,1019.48
2018-06-23T04:29:58.646Z,1019.44
2018-06-23T04:30:24.784Z,1019.44
2018-06-23T04:30:50.924Z,1019.39
2018-06-23T04:31:17.059Z,1019.48
2018-06-23T04:31:43.197Z,1019.5
2018-06-23T04:32:09.329Z,1019.5
2018-06-23T04:32:35.470Z,1019.46
2018-06-23T04:33:01.610Z,1019.48
2018-06-23T04:33:27.815Z,1019.46
2018-06-23T04:33:53.921Z,1019.45
2018-06-23T04:34:20.059Z,1019.46
2018-06-23T04:34:46.205Z,1019.38
2018-06-23T04:35:12.346Z,1019.46
2018-06-23T04:35:38.480Z,1019.45
2018-06-23T04:36:04.646Z,1019.41
2018-06-23T04:36:30.787Z,1019.37
2018-06-23T04:36:56.932Z,1019.41
2018-06-23T04:37:23.068Z,1019.43
2018-06-23T04:37:49.206Z,1019.41
2018-06-23T04:38:15.340Z,1019.44
2018-06-23T04:38:41.480Z,1019.45
2018-06-23T04:39:07.642Z,1019.43
2018-06-23T04:39:33.782Z,1019.44
2018-06-23T04:39:59.919Z,1019.4
2018-06-23T04:40:26.056Z,1019.42
2018-06-23T04:40:52.191Z,1019.45
2018-06-23T04:41:18.329Z,1019.44
2018-06-23T04:41:44.460Z,1019.46
2018-06-23T04:42:10.604Z,1019.45
2018-06-23T04:42:36.740Z,1019.47
2018-06-23T04:43:02.881Z,1019.48
2018-06-23T04:43:29.016Z,1019.47
2018-06-23T04:43:55.148Z,1019.46
2018-06-23T04:44:21.343Z,1019.42
2018-06-23T04:44:47.483Z,1019.48
2018-06-23T04:45:13.633Z,1019.48
2018-06-23T04:45:39.771Z,1019.47
2018-06-23T04:46:05.907Z,1019.47
2018-06-23T04:46:32.049Z,1019.44
2018-06-23T04:46:58.188Z,1019.5
2018-06-23T04:47:24.324Z,1019.48
2018-06-23T04:47:50.471Z,1019.45
2018-06-23T04:48:16.609Z,1019.45
2018-06-23T04:48:42.764Z,1019.47
2018-06-23T04:49:08.910Z,1019.45
2018-06-23T04:49:35.088Z,1019.48
2018-06-23T04:50:01.241Z,1019.49
2018-06-23T04:50:27.432Z,1019.44
2018-06-23T04:50:53.573Z,1019.48
2018-06-23T04:51:19.756Z,1019.49
2018-06-23T04:51:45.894Z,1019.46
2018-06-23T04:52:12.033Z,1019.46
2018-06-23T04:52:38.172Z,1019.5
2018-06-23T04:53:04.322Z,1019.44
2018-06-23T04:53:30.495Z,1019.43
2018-06-23T04:53:56.667Z,1019.4
2018-06-23T04:54:22.855Z,1019.46
2018-06-23T04:54:49.016Z,1019.45
2018-06-23T04:55:15.145Z,1019.44
2018-06-23T04:55:41.286Z,1019.49
2018-06-23T04:56:07.452Z,1019.42
2018-06-23T04:56:33.590Z,1019.42
2018-06-23T04:56:59.722Z,1019.41
2018-06-23T04:57:25.855Z,1019.42
2018-06-23T04:57:51.996Z,1019.42
2018-06-23T04:58:18.168Z,1019.45
2018-06-23T04:58:44.310Z,1019.46
2018-06-23T04:59:10.444Z,1019.42
2018-06-23T04:59:36.585Z,1019.43
2018-06-23T05:00:02.753Z,1019.44
2018-06-23T05:00:28.958Z,1019.43
2018-06-23T05:00:55.038Z,1019.42
2018-06-23T05:01:21.176Z,1019.39
2018-06-23T05:01:47.314Z,1019.42
2018-06-23T05:02:13.448Z,1019.42
2018-06-23T05:02:39.587Z,1019.42
2018-06-23T05:03:05.720Z,1019.43
2018-06-23T05:03:31.859Z,1019.44
2018-06-23T05:03:58.002Z,1019.45
2018-06-23T05:04:24.135Z,1019.39
2018-06-23T05:04:50.295Z,1019.4
2018-06-23T05:05:16.433Z,1019.38
2018-06-23T05:05:42.569Z,1019.39
2018-06-23T05:06:08.711Z,1019.44
2018-06-23T05:06:34.849Z,1019.4
2018-06-23T05:07:00.990Z,1019.4
2018-06-23T05:07:27.152Z,1019.37
2018-06-23T05:07:53.288Z,1019.37
2018-06-23T05:08:19.429Z,1019.4
2018-06-23T05:08:45.564Z,1019.4
2018-06-23T05:09:11.698Z,1019.41
2018-06-23T05:09:37.837Z,1019.42
2018-06-23T05:10:04.007Z,1019.4
2018-06-23T05:10:30.204Z,1019.41
2018-06-23T05:10:56.452Z,1019.44
2018-06-23T05:11:22.652Z,1019.42
2018-06-23T05:11:48.815Z,1019.42
2018-06-23T05:12:15.068Z,1019.44
2018-06-23T05:12:41.185Z,1019.41
2018-06-23T05:13:07.316Z,1019.42
2018-06-23T05:13:33.450Z,1019.4
2018-06-23T05:13:59.591Z,1019.42
2018-06-23T05:14:25.774Z,1019.41
2018-06-23T05:14:51.915Z,1019.43
2018-06-23T05:15:18.059Z,1019.41
2018-06-23T05:15:44.194Z,1019.45
2018-06-23T05:16:10.333Z,1019.44
2018-06-23T05:16:36.465Z,1019.4
2018-06-23T05:17:02.604Z,1019.42
2018-06-23T05:17:28.745Z,1019.44